createdAt,value
2019-02-11T00:09:19.783Z,998.1
2019-02-11T00:19:31.998Z,998.3
2019-02-11T00:29:46.778Z,998.6
2019-02-11T00:40:31.194Z,998.8
2019-02-11T00:50:44.569Z,999.2
2019-02-11T01:00:58.075Z,999.2
2019-02-11T01:11:11.773Z,999.6
2019-02-11T01:21:56.385Z,999.9
2019-02-11T01:32:09.647Z,1000.0
2019-02-11T01:42:23.063Z,1000.5
2019-02-11T01:52:36.282Z,1000.5
2019-02-11T02:02:49.375Z,1000.8
2019-02-11T02:13:02.572Z,1001.0
2019-02-11T02:23:48.648Z,1001.1
2019-02-11T02:34:01.685Z,1001.2
2019-02-11T02:44:14.877Z,1001.4
2019-02-11T02:54:28.428Z,1001.6
2019-02-11T03:04:42.396Z,1001.9
2019-02-11T03:14:55.600Z,1001.9
2019-02-11T03:25:09.076Z,1002.2
2019-02-11T03:35:22.997Z,1002.4
2019-02-11T03:45:34.239Z,1002.5
2019-02-11T03:55:47.466Z,1002.8
2019-02-11T04:06:00.696Z,1003.1
2019-02-11T04:16:45.257Z,1003.2
2019-02-11T04:26:59.759Z,1003.5
2019-02-11T04:37:13.285Z,1003.7
2019-02-11T04:47:59.917Z,1003.9
2019-02-11T04:58:46.446Z,1004.1
2019-02-11T05:08:59.893Z,1004.2
2019-02-11T05:19:15.170Z,1004.2
2019-02-11T05:29:28.546Z,1004.4
2019-02-11T05:39:42.393Z,1004.6
2019-02-11T05:49:54.089Z,1004.8
2019-02-11T06:00:08.500Z,1005.1
2019-02-11T06:10:22.321Z,1005.2
2019-02-11T06:20:35.418Z,1005.5
2019-02-11T06:30:48.760Z,1005.8
2019-02-11T06:41:02.730Z,1005.9
2019-02-11T06:51:49.743Z,1006.2
2019-02-11T07:02:34.497Z,1006.5
2019-02-11T07:12:47.804Z,1006.7
2019-02-11T07:23:32.413Z,1006.8
2019-02-11T07:33:45.823Z,1007.0
2019-02-11T07:43:59.172Z,1007.3
2019-02-11T07:54:12.377Z,1007.8
2019-02-11T08:04:25.372Z,1008.0
2019-02-11T08:14:38.498Z,1008.2
2019-02-11T08:24:51.980Z,1008.4
2019-02-11T08:35:05.424Z,1008.7
2019-02-11T08:45:51.958Z,1008.8
2019-02-11T08:56:38.813Z,1008.9
2019-02-11T09:06:51.925Z,1009.0
2019-02-11T09:17:10.077Z,1009.5
2019-02-11T09:27:16.737Z,1009.7
2019-02-11T09:37:30.770Z,1009.9
2019-02-11T09:47:44.629Z,1010.2
2019-02-11T09:57:57.920Z,1010.3
2019-02-11T10:08:42.656Z,1010.4
2019-02-11T10:18:56.187Z,1010.7
2019-02-11T10:29:09.990Z,1010.9
2019-02-11T10:39:25.338Z,1010.8
2019-02-11T10:49:36.435Z,1010.9
2019-02-11T10:59:49.720Z,1012.0
2019-02-11T11:10:03.013Z,1011.6
2019-02-11T11:20:16.807Z,1011.9
2019-02-11T11:31:03.787Z,1011.8
2019-02-11T11:41:17.646Z,1011.8
2019-02-11T11:52:07.376Z,1011.7
2019-02-11T12:02:21.993Z,1012.7
2019-02-11T12:12:35.615Z,1012.7
2019-02-11T12:22:52.466Z,1012.8
2019-02-11T12:33:04.471Z,1013.2
2019-02-11T12:43:16.623Z,1012.8
2019-02-11T12:53:28.621Z,1012.4
2019-02-11T13:03:45.152Z,1013.4
2019-02-11T13:13:59.870Z,1013.7
2019-02-11T13:24:12.507Z,1013.5
2019-02-11T13:34:23.701Z,1013.7
2019-02-11T13:44:37.845Z,1013.9
2019-02-11T13:54:51.098Z,1014.5
2019-02-11T14:05:39.141Z,1015.5
2019-02-11T14:16:26.819Z,1015.0
2019-02-11T14:26:43.421Z,1015.9
2019-02-11T14:36:55.737Z,1015.2
2019-02-11T14:47:49.778Z,1015.1
2019-02-11T14:58:03.519Z,1015.5
2019-02-11T15:08:49.872Z,1015.8
2019-02-11T15:19:37.979Z,1016.3
2019-02-11T15:30:25.170Z,1016.6
2019-02-11T15:40:37.185Z,1017.0
2019-02-11T15:52:01.708Z,1017.3
2019-02-11T16:02:14.684Z,1017.6
2019-02-11T16:12:28.745Z,1018.0
2019-02-11T16:22:42.639Z,1018.3
2019-02-11T16:32:56.442Z,1018.6
2019-02-11T16:43:11.520Z,1018.8
2019-02-11T16:53:56.275Z,1019.1
2019-02-11T17:04:42.921Z,1019.5
2019-02-11T17:15:07.555Z,1019.7
2019-02-11T17:25:21.733Z,1019.8
2019-02-11T17:36:07.054Z,1019.9
2019-02-11T17:47:18.909Z,1020.2
2019-02-11T17:58:01.404Z,1020.3
2019-02-11T18:08:19.651Z,1020.4
2019-02-11T18:18:37.222Z,1020.5
2019-02-11T18:28:52.796Z,1020.9
2019-02-11T18:40:06.246Z,1021.2
2019-02-11T18:51:22.803Z,1021.5
2019-02-11T19:05:16.494Z,1021.4
2019-02-11T19:17:44.371Z,1021.3
2019-02-11T19:29:56.221Z,1021.9
2019-02-11T19:40:56.277Z,1021.7
2019-02-11T19:51:54.329Z,1021.8
2019-02-11T20:03:23.732Z,1022.2
2019-02-11T20:14:27.359Z,1022.3
2019-02-11T20:25:51.554Z,1022.6
2019-02-11T20:36:36.552Z,1022.7
2019-02-11T20:47:40.612Z,1022.8
2019-02-11T20:59:03.790Z,1022.8
2019-02-11T21:09:58.291Z,1023.1
2019-02-11T21:20:17.677Z,1023.2
2019-02-11T21:30:29.415Z,1023.3
2019-02-11T21:40:41.280Z,1023.5
2019-02-11T21:50:54.218Z,1023.7
2019-02-11T22:01:07.487Z,1023.6
2019-02-11T22:11:19.397Z,1023.8
2019-02-11T22:21:32.928Z,1023.7
2019-02-11T22:31:46.755Z,1023.9
2019-02-11T22:42:00.633Z,1024.5
2019-02-11T22:52:13.667Z,1024.2
2019-02-11T23:02:27.566Z,1024.0
2019-02-11T23:12:41.327Z,1024.2
2019-02-11T23:22:54.827Z,1024.2
2019-02-11T23:33:09.153Z,1024.4
2019-02-11T23:43:23.035Z,1024.5
2019-02-11T23:53:34.452Z,1024.6
